Time;durP1;ratioP1;P1;durP2;ratioP2;P2;SDS_P1;SDS_P2;PMS_P1;PMS_P2;Temp;Humidity;BMP_temperature;BMP_pressure;BME280_temperature;BME280_humidity;BME280_pressure;Samples;Min_cycle;Max_cycle;Signal;HPM_P1;HPM_P2
2023/08/28 04:01:59;;;;;;;0.60;0.10;;;16.30;99.90;;;;;;5181047;23;21029;-71
2023/08/28 04:04:27;;;;;;;0.70;0.47;;;16.20;99.90;;;;;;4895460;29;20938;-71
2023/08/28 04:06:58;;;;;;;0.80;0.60;;;16.20;99.90;;;;;;4895146;29;20492;-71
2023/08/28 04:09:25;;;;;;;0.60;0.10;;;16.20;99.90;;;;;;4895460;29;20472;-72
2023/08/28 04:11:53;;;;;;;0.60;0.10;;;16.30;99.90;;;;;;4895999;29;20495;-71
2023/08/28 04:14:21;;;;;;;0.60;0.10;;;16.30;99.90;;;;;;4896682;29;20876;-71
2023/08/28 04:16:49;;;;;;;0.60;0.10;;;16.30;99.90;;;;;;4966939;23;20607;-75
2023/08/28 04:19:18;;;;;;;0.60;0.20;;;16.20;99.90;;;;;;4896572;29;20461;-75
2023/08/28 04:21:46;;;;;;;0.60;0.10;;;16.20;99.90;;;;;;4896614;29;20457;-75
2023/08/28 04:24:14;;;;;;;0.60;0.10;;;16.10;99.90;;;;;;4896854;29;20453;-75
2023/08/28 04:26:42;;;;;;;0.60;0.20;;;16.10;99.90;;;;;;4896216;29;20473;-75
2023/08/28 04:29:10;;;;;;;0.60;0.10;;;16.00;99.90;;;;;;4897188;29;20500;-74
2023/08/28 04:31:38;;;;;;;0.60;0.10;;;15.90;99.90;;;;;;4897901;29;20553;-75
2023/08/28 04:34:05;;;;;;;0.60;0.10;;;15.90;99.90;;;;;;4897044;29;20460;-76
2023/08/28 04:36:35;;;;;;;0.60;0.10;;;15.80;99.90;;;;;;4897418;29;20477;-76
2023/08/28 04:39:02;;;;;;;0.60;0.10;;;15.80;99.90;;;;;;4904174;29;20463;-75
2023/08/28 04:41:30;;;;;;;0.60;0.30;;;15.80;99.90;;;;;;4906087;29;20598;-76
2023/08/28 04:43:58;;;;;;;0.60;0.10;;;15.90;99.90;;;;;;4900981;29;20536;-75
2023/08/28 04:46:26;;;;;;;0.60;0.10;;;15.80;99.90;;;;;;4900858;29;20477;-75
2023/08/28 04:48:54;;;;;;;0.60;0.20;;;15.80;99.90;;;;;;4901260;29;20449;-75
2023/08/28 04:51:22;;;;;;;0.60;0.30;;;15.70;99.90;;;;;;4901727;29;20888;-76
2023/08/28 04:53:51;;;;;;;0.60;0.10;;;15.70;99.90;;;;;;4901918;29;20552;-76
2023/08/28 04:56:19;;;;;;;0.60;0.10;;;15.70;99.90;;;;;;4901716;29;20544;-76
2023/08/28 04:58:47;;;;;;;0.60;0.10;;;15.70;99.90;;;;;;4904293;29;20838;-76
2023/08/28 05:01:14;;;;;;;0.60;0.10;;;15.80;99.90;;;;;;4900240;29;20540;-76
2023/08/28 05:03:42;;;;;;;0.60;0.10;;;15.80;99.90;;;;;;4899916;29;20445;-75
2023/08/28 05:06:10;;;;;;;0.60;0.10;;;15.90;99.90;;;;;;4899753;29;20470;-76
2023/08/28 05:08:38;;;;;;;0.60;0.10;;;15.90;99.90;;;;;;4904089;29;20476;-75
2023/08/28 05:11:08;;;;;;;0.60;0.10;;;;;;;;;;4903797;29;20449;-76
2023/08/28 05:13:36;;;;;;;0.60;0.10;;;16.10;99.90;;;;;;4901229;29;20521;-76
2023/08/28 05:16:04;;;;;;;0.60;0.10;;;16.10;99.90;;;;;;4899736;29;20477;-76
2023/08/28 05:18:32;;;;;;;0.60;0.10;;;16.10;99.90;;;;;;4899183;29;20934;-76
2023/08/28 05:20:59;;;;;;;0.60;0.20;;;16.10;99.90;;;;;;4899267;29;20632;-76
2023/08/28 05:23:27;;;;;;;0.60;0.10;;;16.10;99.90;;;;;;4899068;29;20536;-76
2023/08/28 05:25:55;;;;;;;0.60;0.10;;;16.10;99.90;;;;;;4898841;29;20473;-76
2023/08/28 05:28:25;;;;;;;0.60;0.10;;;16.20;99.90;;;;;;4899101;29;20540;-76
2023/08/28 05:30:53;;;;;;;0.90;0.60;;;16.20;99.90;;;;;;4899160;29;20453;-75
2023/08/28 05:33:21;;;;;;;0.60;0.10;;;16.20;99.90;;;;;;4898542;29;20830;-76
2023/08/28 05:35:49;;;;;;;0.60;0.10;;;16.20;99.90;;;;;;4898736;29;20564;-75
2023/08/28 05:38:17;;;;;;;0.60;0.10;;;16.30;99.90;;;;;;4898892;29;20551;-76
2023/08/28 05:40:45;;;;;;;0.60;0.10;;;16.20;99.90;;;;;;4898803;29;20449;-76
2023/08/28 05:43:13;;;;;;;0.60;0.37;;;16.10;99.90;;;;;;4898491;29;20452;-75
2023/08/28 05:45:42;;;;;;;0.60;0.10;;;16.10;99.90;;;;;;4898775;29;20532;-76
2023/08/28 05:48:10;;;;;;;0.60;0.10;;;16.10;99.90;;;;;;4899024;29;20454;-76
2023/08/28 05:50:39;;;;;;;0.60;0.10;;;16.00;99.90;;;;;;4897653;29;20971;-75
2023/08/28 05:53:07;;;;;;;0.60;0.10;;;16.10;99.90;;;;;;4898756;29;20502;-76
2023/08/28 05:55:35;;;;;;;0.60;0.10;;;16.10;99.90;;;;;;4898093;29;20477;-76
2023/08/28 05:58:03;;;;;;;0.60;0.10;;;16.20;99.90;;;;;;4898675;29;20545;-76
2023/08/28 06:00:31;;;;;;;0.60;0.20;;;16.30;99.90;;;;;;4898300;29;20453;-76
2023/08/28 06:03:00;;;;;;;0.60;0.13;;;16.20;99.90;;;;;;4899404;29;20481;-76
2023/08/28 06:05:29;;;;;;;0.60;0.13;;;16.20;99.90;;;;;;4897802;29;20532;-76
2023/08/28 06:07:56;;;;;;;0.60;0.10;;;16.30;99.90;;;;;;4898151;29;20489;-76
2023/08/28 06:10:24;;;;;;;0.60;0.10;;;16.30;99.90;;;;;;4898382;29;20531;-76
2023/08/28 06:12:52;;;;;;;0.60;0.10;;;16.40;99.90;;;;;;4898418;29;20862;-76
2023/08/28 06:15:20;;;;;;;0.77;0.20;;;16.40;99.90;;;;;;4897187;29;20457;-76
2023/08/28 06:17:50;;;;;;;0.60;0.10;;;16.40;99.90;;;;;;4897016;29;20858;-75
2023/08/28 06:20:25;;;;;;;0.60;0.10;;;;;;;;;;4897624;29;20482;-75
2023/08/28 06:22:53;;;;;;;0.60;0.10;;;16.40;99.90;;;;;;4897802;29;20446;-76
2023/08/28 06:25:21;;;;;;;0.60;0.10;;;16.30;99.90;;;;;;4897736;29;20595;-76
2023/08/28 06:27:49;;;;;;;0.60;0.10;;;16.30;99.90;;;;;;4900955;29;20889;-76
2023/08/28 06:30:17;;;;;;;0.60;0.10;;;16.40;99.90;;;;;;4898388;29;20456;-76
2023/08/28 06:32:44;;;;;;;0.60;0.10;;;16.40;99.90;;;;;;4898023;29;20457;-75
2023/08/28 06:35:13;;;;;;;0.60;0.13;;;16.40;99.90;;;;;;4897416;29;20956;-75
2023/08/28 06:37:42;;;;;;;0.60;0.10;;;16.40;99.90;;;;;;4897693;29;20541;-76
2023/08/28 06:40:10;;;;;;;0.60;0.17;;;;;;;;;;4897854;29;20525;-75
2023/08/28 06:42:38;;;;;;;0.60;0.10;;;16.40;99.90;;;;;;4898469;29;20541;-75
2023/08/28 06:45:07;;;;;;;0.60;0.10;;;16.40;99.90;;;;;;4899085;29;20445;-75
2023/08/28 06:47:38;;;;;;;0.60;0.10;;;16.40;99.90;;;;;;4898564;29;20822;-76
2023/08/28 06:50:07;;;;;;;0.60;0.20;;;16.40;99.90;;;;;;4898085;29;20930;-76
2023/08/28 06:52:35;;;;;;;0.60;0.10;;;;;;;;;;4897634;29;20569;-76
2023/08/28 06:55:07;;;;;;;0.60;0.10;;;16.60;99.90;;;;;;4897838;29;20552;-76
2023/08/28 06:57:35;;;;;;;0.60;0.10;;;16.70;99.90;;;;;;4897619;29;20449;-75
2023/08/28 07:00:05;;;;;;;0.60;0.10;;;16.60;99.90;;;;;;4897167;29;20479;-75
2023/08/28 07:02:34;;;;;;;0.60;0.20;;;;;;;;;;4897502;29;20858;-75
2023/08/28 07:05:02;;;;;;;0.60;0.10;;;16.70;99.90;;;;;;4897100;29;20871;-76
2023/08/28 07:07:30;;;;;;;0.60;0.13;;;16.70;99.90;;;;;;4897019;29;20464;-75
2023/08/28 07:09:57;;;;;;;0.60;0.20;;;16.80;99.90;;;;;;4897279;29;20545;-76
2023/08/28 07:12:26;;;;;;;0.60;0.10;;;16.90;99.90;;;;;;4897219;29;20453;-76
2023/08/28 07:15:27;;;;;;;0.60;0.20;;;16.80;99.90;;;;;;4897603;29;20491;-76
2023/08/28 07:17:56;;;;;;;0.60;0.10;;;;;;;;;;4898488;29;20454;-76
2023/08/28 07:20:24;;;;;;;0.60;0.10;;;16.80;99.90;;;;;;4897587;29;20535;-76
2023/08/28 07:22:53;;;;;;;0.60;0.10;;;16.90;99.90;;;;;;4898566;29;20543;-76
2023/08/28 07:25:22;;;;;;;0.60;0.10;;;16.90;99.90;;;;;;4897815;29;20437;-75
2023/08/28 07:27:52;;;;;;;0.60;0.10;;;17.00;99.90;;;;;;4898941;29;20450;-76
2023/08/28 07:30:20;;;;;;;0.60;0.10;;;17.00;99.90;;;;;;4898271;29;20451;-76
2023/08/28 07:32:48;;;;;;;0.60;0.10;;;17.10;99.90;;;;;;4898094;29;20449;-77
2023/08/28 07:35:16;;;;;;;0.60;0.20;;;17.20;99.90;;;;;;4897396;29;20500;-76
2023/08/28 07:37:44;;;;;;;0.60;0.10;;;17.20;99.90;;;;;;4897967;29;20482;-76
2023/08/28 07:40:12;;;;;;;0.60;0.20;;;17.30;99.90;;;;;;4898179;29;20951;-77
2023/08/28 07:42:40;;;;;;;0.60;0.10;;;17.40;99.90;;;;;;4898495;29;20557;-75
2023/08/28 07:45:10;;;;;;;0.60;0.10;;;17.40;99.90;;;;;;4897735;29;20540;-75
2023/08/28 07:47:41;;;;;;;0.60;0.10;;;17.40;99.90;;;;;;4897914;29;20477;-76
2023/08/28 07:50:12;;;;;;;0.60;0.10;;;17.50;99.90;;;;;;4897314;29;20453;-76
2023/08/28 07:52:41;;;;;;;0.60;0.10;;;17.40;99.90;;;;;;4897629;29;20574;-76
2023/08/28 07:55:09;;;;;;;0.60;0.10;;;17.40;99.90;;;;;;4897244;29;20493;-75
2023/08/28 07:57:37;;;;;;;0.60;0.10;;;17.40;99.90;;;;;;4898454;29;20549;-76
2023/08/28 08:00:09;;;;;;;0.60;0.10;;;17.50;99.90;;;;;;4900343;29;20455;-76
2023/08/28 08:02:38;;;;;;;0.60;0.10;;;17.60;99.90;;;;;;4902995;29;20509;-77
2023/08/28 08:05:07;;;;;;;0.60;0.10;;;17.50;99.90;;;;;;4902716;29;20453;-76
2023/08/28 08:07:35;;;;;;;0.60;0.10;;;17.50;99.90;;;;;;4899199;29;20506;-76
2023/08/28 08:10:04;;;;;;;0.60;0.10;;;17.60;99.90;;;;;;4899902;29;20449;-75
2023/08/28 08:12:32;;;;;;;0.60;0.10;;;17.60;99.90;;;;;;4902169;29;20442;-76
2023/08/28 08:15:00;;;;;;;0.60;0.17;;;17.70;99.90;;;;;;4918538;29;20530;-75
2023/08/28 08:17:32;;;;;;;0.60;0.13;;;17.60;99.90;;;;;;4901829;29;20581;-76
2023/08/28 08:20:01;;;;;;;0.60;0.10;;;17.60;99.90;;;;;;4900755;29;20973;-76
2023/08/28 08:22:29;;;;;;;0.60;0.10;;;17.70;99.90;;;;;;4898339;29;20449;-76
2023/08/28 08:24:57;;;;;;;0.60;0.10;;;17.60;99.90;;;;;;4898854;29;20720;-77
2023/08/28 08:27:27;;;;;;;0.60;0.20;;;;;;;;;;4897733;29;20869;-74
2023/08/28 08:29:55;;;;;;;0.60;0.10;;;17.80;99.90;;;;;;4896861;29;20826;-76
2023/08/28 08:32:23;;;;;;;0.60;0.10;;;17.80;99.90;;;;;;4896721;29;20458;-76
2023/08/28 08:34:51;;;;;;;0.60;0.10;;;17.80;99.90;;;;;;4897460;29;21032;-76
2023/08/28 08:37:20;;;;;;;0.80;0.47;;;17.80;99.90;;;;;;4899365;29;20573;-76
2023/08/28 08:39:48;;;;;;;0.60;0.10;;;17.80;99.90;;;;;;4900032;29;20464;-76
2023/08/28 08:42:18;;;;;;;0.60;0.10;;;17.70;99.90;;;;;;4897736;29;20460;-76
2023/08/28 08:44:47;;;;;;;0.60;0.10;;;;;;;;;;4896411;29;20456;-74
2023/08/28 08:47:16;;;;;;;0.60;0.10;;;17.80;99.90;;;;;;4896249;29;20548;-76
2023/08/28 08:49:51;;;;;;;0.60;0.20;;;17.80;99.90;;;;;;4898489;29;20455;-76
2023/08/28 08:52:23;;;;;;;0.60;0.10;;;17.90;99.90;;;;;;4898506;29;20553;-75
2023/08/28 08:54:55;;;;;;;0.60;0.10;;;17.90;99.90;;;;;;4897441;29;20584;-75
2023/08/28 08:57:30;;;;;;;0.60;0.10;;;18.00;99.90;;;;;;4896953;29;20473;-75
2023/08/28 08:59:58;;;;;;;0.60;0.13;;;18.00;99.90;;;;;;4897105;29;20477;-77
2023/08/28 09:02:30;;;;;;;0.60;0.27;;;18.10;99.90;;;;;;4897530;29;20482;-76
2023/08/28 09:04:59;;;;;;;0.60;0.20;;;18.00;99.90;;;;;;4895833;29;20473;-76
2023/08/28 09:07:29;;;;;;;0.60;0.30;;;18.00;99.90;;;;;;4897344;29;20508;-76
2023/08/28 09:09:58;;;;;;;0.60;0.10;;;17.90;99.90;;;;;;4896911;29;20481;-76
2023/08/28 09:12:26;;;;;;;0.60;0.10;;;18.00;99.90;;;;;;4897081;29;20450;-76
2023/08/28 09:14:54;;;;;;;0.60;0.10;;;18.00;99.90;;;;;;4897864;29;20489;-75
2023/08/28 09:17:25;;;;;;;0.70;0.40;;;18.00;99.90;;;;;;4898998;29;20493;-77
2023/08/28 09:19:53;;;;;;;0.60;0.10;;;17.90;99.90;;;;;;4896598;29;20454;-76
2023/08/28 09:22:25;;;;;;;0.60;0.10;;;17.90;99.90;;;;;;4899571;29;20545;-76
2023/08/28 09:24:54;;;;;;;0.60;0.10;;;18.00;99.90;;;;;;4903230;29;20965;-76
2023/08/28 09:27:22;;;;;;;0.60;0.10;;;18.00;99.90;;;;;;4911323;29;20480;-76
2023/08/28 09:29:53;;;;;;;0.60;0.10;;;18.00;99.90;;;;;;4911039;29;20449;-77
2023/08/28 09:32:30;;;;;;;0.70;0.33;;;18.10;99.90;;;;;;4912083;29;20460;-76
2023/08/28 09:34:58;;;;;;;0.60;0.20;;;18.10;99.90;;;;;;4910287;29;20549;-77
2023/08/28 09:37:27;;;;;;;0.70;0.50;;;18.10;99.90;;;;;;4910206;29;20492;-75
2023/08/28 09:40:00;;;;;;;0.60;0.13;;;18.10;99.90;;;;;;4911132;29;20864;-77
2023/08/28 09:42:29;;;;;;;0.60;0.10;;;18.20;99.90;;;;;;4910594;29;20465;-76
2023/08/28 09:44:57;;;;;;;0.60;0.10;;;18.30;99.90;;;;;;4903146;29;20537;-76
2023/08/28 09:47:28;;;;;;;0.60;0.10;;;18.30;99.90;;;;;;4907591;29;20523;-75
2023/08/28 09:50:05;;;;;;;0.60;0.20;;;18.40;99.90;;;;;;4908706;29;20453;-76
2023/08/28 09:52:34;;;;;;;0.60;0.20;;;18.40;99.90;;;;;;4908561;29;20867;-76
2023/08/28 09:55:05;;;;;;;0.60;0.10;;;18.50;99.90;;;;;;4905886;29;20486;-76
2023/08/28 09:57:33;;;;;;;0.60;0.10;;;18.50;99.90;;;;;;4903330;29;20458;-77
2023/08/28 10:00:01;;;;;;;0.60;0.10;;;18.50;99.90;;;;;;4900770;29;20505;-76
2023/08/28 10:02:30;;;;;;;0.63;0.30;;;18.50;99.90;;;;;;4901691;29;20508;-75
2023/08/28 10:05:00;;;;;;;0.60;0.20;;;18.60;99.90;;;;;;4900720;29;20455;-78
2023/08/28 10:07:29;;;;;;;0.60;0.17;;;18.60;99.90;;;;;;4900463;29;20451;-77
2023/08/28 10:10:03;;;;;;;0.60;0.10;;;18.60;99.90;;;;;;4902794;29;20964;-77
2023/08/28 10:12:34;;;;;;;0.60;0.10;;;18.50;99.90;;;;;;4904549;29;20505;-76
2023/08/28 10:15:04;;;;;;;0.60;0.10;;;;;;;;;;4903824;29;20573;-76
2023/08/28 10:17:34;;;;;;;0.60;0.20;;;18.40;99.90;;;;;;4906939;29;20552;-75
2023/08/28 10:20:04;;;;;;;0.60;0.10;;;18.50;99.90;;;;;;4891679;29;20555;-71
2023/08/28 10:22:35;;;;;;;0.60;0.20;;;18.60;99.90;;;;;;4907587;29;20903;-71
2023/08/28 10:25:03;;;;;;;0.60;0.10;;;18.70;99.90;;;;;;4909193;29;20516;-75
2023/08/28 10:27:34;;;;;;;0.60;0.20;;;18.80;99.90;;;;;;4917329;29;20466;-72
2023/08/28 10:30:04;;;;;;;0.60;0.20;;;18.80;99.90;;;;;;4897694;29;20466;-73
2023/08/28 10:32:33;;;;;;;0.60;0.10;;;19.00;99.90;;;;;;4899174;29;20507;-74
2023/08/28 10:35:02;;;;;;;0.60;0.10;;;;;;;;;;4906830;29;20481;-71
2023/08/28 10:37:32;;;;;;;0.83;0.60;;;19.50;99.90;;;;;;4901841;29;20466;-72
2023/08/28 10:40:03;;;;;;;0.60;0.10;;;19.60;99.90;;;;;;4909403;29;20536;-71
2023/08/28 10:42:33;;;;;;;0.60;0.10;;;19.60;98.60;;;;;;4911829;29;20494;-71
2023/08/28 10:45:01;;;;;;;0.60;0.10;;;19.70;99.90;;;;;;4908320;29;20962;-72
2023/08/28 10:47:30;;;;;;;0.60;0.17;;;19.80;93.10;;;;;;4899021;29;20459;-71
2023/08/28 10:49:58;;;;;;;0.60;0.20;;;;;;;;;;4897741;29;20480;-70
2023/08/28 10:52:28;;;;;;;0.83;0.40;;;19.70;77.40;;;;;;4897289;29;20448;-71
2023/08/28 10:54:57;;;;;;;0.60;0.20;;;19.70;91.10;;;;;;4896887;29;20535;-72
2023/08/28 10:57:29;;;;;;;0.60;0.13;;;19.70;87.60;;;;;;4897441;29;20502;-72
2023/08/28 11:00:14;;;;;;;0.60;0.10;;;19.90;83.40;;;;;;4897661;29;20462;-70
2023/08/28 11:03:06;;;;;;;0.60;0.10;;;19.90;92.50;;;;;;4896714;29;20956;-71
2023/08/28 11:05:34;;;;;;;0.60;0.10;;;20.00;72.00;;;;;;4896159;29;20466;-71
2023/08/28 11:08:04;;;;;;;0.60;0.10;;;20.00;84.40;;;;;;4903711;29;21351;-71
2023/08/28 11:10:32;;;;;;;0.60;0.10;;;19.80;65.80;;;;;;4898335;29;20470;-71
2023/08/28 11:13:03;;;;;;;0.60;0.10;;;19.70;66.80;;;;;;4905589;29;20458;-72
2023/08/28 11:15:34;;;;;;;0.60;0.10;;;19.80;65.90;;;;;;4895506;29;20985;-73
2023/08/28 11:18:28;;;;;;;0.60;0.20;;;19.80;79.20;;;;;;4905520;29;20538;-71
2023/08/28 11:20:57;;;;;;;0.60;0.13;;;19.80;71.30;;;;;;4913526;29;20990;-72
2023/08/28 11:23:33;;;;;;;0.60;0.10;;;19.90;72.30;;;;;;4915476;29;20474;-70
2023/08/28 11:26:05;;;;;;;1.03;0.67;;;19.90;72.40;;;;;;4898665;29;21070;-71
2023/08/28 11:28:44;;;;;;;0.60;0.10;;;19.90;84.70;;;;;;4904549;29;20443;-71
2023/08/28 11:31:15;;;;;;;0.60;0.10;;;19.90;75.00;;;;;;4914092;29;20528;-72
2023/08/28 11:33:44;;;;;;;0.60;0.10;;;19.90;68.80;;;;;;4903842;29;21059;-71
2023/08/28 11:36:14;;;;;;;0.60;0.10;;;19.80;67.10;;;;;;4903898;29;22054;-70
2023/08/28 11:38:43;;;;;;;1.47;0.93;;;19.70;90.60;;;;;;4903664;29;20459;-70
2023/08/28 11:41:12;;;;;;;0.60;0.10;;;;;;;;;;4914852;29;20451;-73
2023/08/28 11:43:41;;;;;;;0.60;0.10;;;19.70;72.50;;;;;;4903724;29;20482;-72
2023/08/28 11:46:10;;;;;;;0.60;0.10;;;19.80;70.70;;;;;;4908851;29;20472;-74
2023/08/28 11:48:41;;;;;;;0.60;0.10;;;19.80;80.60;;;;;;4900017;29;20474;-71
2023/08/28 11:51:13;;;;;;;0.60;0.10;;;19.90;70.00;;;;;;4910178;29;20867;-70
2023/08/28 11:53:43;;;;;;;0.60;0.20;;;19.90;69.60;;;;;;4917715;29;20455;-75
2023/08/28 11:56:12;;;;;;;0.70;0.30;;;19.90;71.30;;;;;;4915263;29;20498;-71
2023/08/28 11:58:42;;;;;;;0.60;0.10;;;19.90;70.60;;;;;;4913243;29;20448;-72
2023/08/28 12:01:12;;;;;;;0.60;0.10;;;20.00;56.00;;;;;;4894855;29;20504;-70
2023/08/28 12:03:44;;;;;;;0.60;0.10;;;19.90;49.30;;;;;;4895704;29;20462;-71
2023/08/28 12:06:17;;;;;;;0.60;0.10;;;19.80;48.30;;;;;;4895873;29;20471;-70
2023/08/28 12:08:45;;;;;;;0.60;0.20;;;19.90;47.30;;;;;;4895577;29;20466;-71
2023/08/28 12:11:14;;;;;;;0.60;0.13;;;19.90;57.50;;;;;;4896085;29;20554;-71
2023/08/28 12:13:42;;;;;;;0.60;0.10;;;19.90;43.90;;;;;;4896223;29;20661;-70
2023/08/28 12:16:15;;;;;;;0.60;0.10;;;20.00;42.60;;;;;;4895024;29;20497;-71
2023/08/28 12:18:46;;;;;;;0.60;0.20;;;20.10;56.20;;;;;;4893129;29;20467;-70
2023/08/28 12:21:16;;;;;;;1.27;0.93;;;20.20;47.90;;;;;;4892971;29;20606;-72
2023/08/28 12:23:51;;;;;;;0.60;0.10;;;20.20;45.80;;;;;;4907588;29;20450;-70
2023/08/28 12:26:21;;;;;;;0.60;0.10;;;20.20;38.20;;;;;;4895441;29;20464;-72
2023/08/28 12:28:49;;;;;;;0.60;0.10;;;20.20;42.70;;;;;;4895738;29;20459;-71
2023/08/28 12:31:26;;;;;;;0.60;0.20;;;20.20;43.80;;;;;;4897930;29;20440;-70
2023/08/28 12:33:56;;;;;;;0.60;0.20;;;20.10;37.80;;;;;;4897105;29;20523;-72
2023/08/28 12:36:35;;;;;;;0.60;0.10;;;20.20;46.20;;;;;;4896666;29;20572;-71
2023/08/28 12:39:05;;;;;;;0.70;0.40;;;20.20;40.60;;;;;;4896854;29;20781;-71
2023/08/28 12:41:35;;;;;;;0.60;0.10;;;20.30;39.80;;;;;;4895520;29;20463;-71
2023/08/28 12:44:06;;;;;;;0.60;0.10;;;20.30;50.30;;;;;;4894493;29;20462;-72
2023/08/28 12:46:35;;;;;;;0.60;0.20;;;20.40;36.00;;;;;;4894426;29;20468;-70
2023/08/28 12:49:04;;;;;;;0.60;0.20;;;20.40;26.40;;;;;;4894755;29;20846;-71
2023/08/28 12:51:32;;;;;;;0.60;0.10;;;20.40;28.00;;;;;;4894850;29;20463;-72
2023/08/28 12:54:00;;;;;;;0.60;0.20;;;20.60;27.00;;;;;;4895220;29;20544;-69
2023/08/28 12:56:34;;;;;;;0.60;0.20;;;20.60;25.40;;;;;;4896877;29;21022;-72
2023/08/28 12:59:06;;;;;;;0.60;0.10;;;20.50;29.50;;;;;;4899133;29;20829;-72
2023/08/28 13:01:36;;;;;;;0.60;0.20;;;20.50;25.80;;;;;;4900619;29;20976;-70
2023/08/28 13:04:09;;;;;;;0.60;0.10;;;20.50;25.70;;;;;;4898529;29;20455;-72
2023/08/28 13:06:38;;;;;;;0.60;0.10;;;20.60;26.50;;;;;;4898166;29;20559;-72
2023/08/28 13:09:12;;;;;;;0.60;0.10;;;20.70;26.60;;;;;;4896633;29;20932;-69
2023/08/28 13:11:42;;;;;;;0.60;0.20;;;20.70;25.50;;;;;;4896578;29;21011;-76
2023/08/28 13:14:12;;;;;;;1.00;0.30;;;;;;;;;;4905563;29;20456;-74
2023/08/28 13:16:41;;;;;;;0.60;0.20;;;20.60;23.40;;;;;;4908830;29;20854;-74
2023/08/28 13:19:11;;;;;;;0.60;0.10;;;20.60;25.80;;;;;;4917321;29;20457;-74
2023/08/28 13:21:39;;;;;;;0.90;0.33;;;;;;;;;;4917698;29;20462;-72
2023/08/28 13:24:07;;;;;;;0.60;0.10;;;20.50;22.90;;;;;;4917426;29;20451;-71
2023/08/28 13:26:35;;;;;;;0.60;0.20;;;20.40;23.90;;;;;;4917021;29;20464;-73
2023/08/28 13:29:03;;;;;;;0.60;0.10;;;;;;;;;;4917246;29;20563;-71
2023/08/28 13:31:33;;;;;;;0.60;0.20;;;20.40;24.50;;;;;;4911521;29;20499;-69
2023/08/28 13:34:02;;;;;;;0.60;0.20;;;20.50;33.70;;;;;;4905760;29;20455;-69
2023/08/28 13:36:32;;;;;;;1.00;0.80;;;20.50;27.10;;;;;;4903584;29;20532;-68
2023/08/28 13:39:03;;;;;;;0.60;0.20;;;20.50;36.40;;;;;;4914755;29;20608;-69
2023/08/28 13:41:31;;;;;;;0.60;0.20;;;20.40;27.40;;;;;;4916407;29;20566;-68
2023/08/28 13:43:59;;;;;;;0.70;0.30;;;20.50;36.70;;;;;;4906585;29;20470;-69
2023/08/28 13:46:27;;;;;;;0.60;0.10;;;20.40;26.40;;;;;;4898786;29;20522;-70
2023/08/28 13:48:55;;;;;;;0.60;0.10;;;20.40;36.20;;;;;;4907504;29;20488;-71
2023/08/28 13:51:23;;;;;;;0.60;0.10;;;20.40;35.10;;;;;;4909843;29;20829;-69
2023/08/28 13:53:52;;;;;;;0.60;0.10;;;20.40;36.40;;;;;;4901301;29;20467;-70
2023/08/28 13:56:20;;;;;;;0.60;0.10;;;20.40;27.80;;;;;;4893599;29;20482;-70
2023/08/28 13:58:48;;;;;;;0.60;0.10;;;20.30;27.20;;;;;;4908164;29;20479;-70
2023/08/28 14:01:16;;;;;;;0.60;0.10;;;20.30;37.00;;;;;;4909353;29;20551;-69
2023/08/28 14:03:44;;;;;;;0.60;0.10;;;20.20;35.30;;;;;;4895225;29;20471;-70
2023/08/28 14:06:12;;;;;;;0.60;0.10;;;20.20;26.30;;;;;;4904937;29;20538;-69
2023/08/28 14:08:41;;;;;;;0.60;0.10;;;;;;;;;;4907138;29;20912;-70
2023/08/28 14:11:11;;;;;;;0.60;0.20;;;20.30;25.70;;;;;;4896431;29;20478;-70
2023/08/28 14:13:39;;;;;;;0.60;0.17;;;20.50;37.10;;;;;;4897570;29;20535;-70
2023/08/28 14:16:07;;;;;;;0.60;0.20;;;20.60;27.60;;;;;;4897094;29;20493;-70
2023/08/28 14:18:35;;;;;;;0.60;0.10;;;20.60;36.20;;;;;;4899438;29;20503;-71
2023/08/28 14:21:04;;;;;;;1.13;0.70;;;20.40;26.40;;;;;;4906001;29;20504;-70
2023/08/28 14:23:33;;;;;;;0.60;0.20;;;20.40;27.00;;;;;;4909739;29;20455;-71
2023/08/28 14:26:03;;;;;;;0.60;0.10;;;20.40;26.60;;;;;;4915297;29;20471;-69
2023/08/28 14:28:33;;;;;;;0.60;0.20;;;20.30;36.50;;;;;;4908833;29;20508;-69
2023/08/28 14:31:01;;;;;;;0.60;0.20;;;20.40;36.50;;;;;;4905762;29;20558;-76
2023/08/28 14:33:30;;;;;;;0.60;0.10;;;20.40;35.90;;;;;;4896913;29;20466;-75
2023/08/28 14:35:58;;;;;;;0.60;0.20;;;20.60;26.70;;;;;;4896284;29;20508;-76
2023/08/28 14:38:27;;;;;;;0.60;0.17;;;20.60;26.30;;;;;;4896373;29;20571;-76
2023/08/28 14:40:59;;;;;;;0.60;0.17;;;20.60;35.80;;;;;;4897520;29;20495;-74
2023/08/28 14:43:30;;;;;;;0.60;0.10;;;20.60;39.10;;;;;;4896376;29;20447;-75
2023/08/28 14:45:59;;;;;;;0.60;0.10;;;20.60;29.30;;;;;;4898114;29;20505;-75
2023/08/28 14:48:27;;;;;;;0.60;0.10;;;20.60;40.20;;;;;;4911019;29;20496;-75
2023/08/28 14:50:55;;;;;;;0.60;0.30;;;20.60;39.10;;;;;;4901047;29;21045;-75
2023/08/28 14:53:23;;;;;;;0.60;0.30;;;20.60;39.00;;;;;;4897547;29;20480;-75
2023/08/28 14:55:52;;;;;;;0.60;0.10;;;20.50;28.90;;;;;;4904793;29;20481;-77
2023/08/28 14:58:20;;;;;;;0.60;0.20;;;20.50;30.20;;;;;;4898031;29;20488;-76
2023/08/28 15:00:53;;;;;;;0.60;0.20;;;20.50;40.60;;;;;;4897220;29;20846;-75
2023/08/28 15:03:24;;;;;;;0.60;0.10;;;20.50;31.70;;;;;;4896703;29;20999;-75
2023/08/28 15:05:53;;;;;;;1.27;1.17;;;20.40;29.40;;;;;;4895729;29;20476;-75
2023/08/28 15:08:21;;;;;;;0.60;0.13;;;20.40;35.10;;;;;;4877713;29;20469;-75
2023/08/28 15:10:50;;;;;;;0.60;0.10;;;20.40;30.30;;;;;;4889577;29;20474;-77
2023/08/28 15:13:18;;;;;;;0.60;0.10;;;20.30;30.90;;;;;;4903916;29;20537;-77
2023/08/28 15:15:48;;;;;;;0.60;0.10;;;20.30;31.10;;;;;;4899895;29;20744;-76
2023/08/28 15:18:17;;;;;;;13.40;11.80;;;20.30;54.80;;;;;;4899902;29;20544;-77
2023/08/28 15:20:48;;;;;;;0.60;0.20;;;20.20;33.90;;;;;;4898919;29;20467;-77
2023/08/28 15:23:16;;;;;;;0.60;0.10;;;20.20;32.00;;;;;;4909674;29;20535;-75
2023/08/28 15:25:44;;;;;;;0.60;0.10;;;20.10;32.60;;;;;;4919254;29;20502;-77
2023/08/28 15:28:12;;;;;;;0.60;0.10;;;20.10;33.60;;;;;;4918130;29;20461;-75
2023/08/28 15:30:42;;;;;;;0.60;0.20;;;20.20;39.70;;;;;;4916795;29;20972;-76
2023/08/28 15:33:11;;;;;;;0.60;0.20;;;;;;;;;;4904611;29;20466;-77
2023/08/28 15:35:39;;;;;;;0.60;0.20;;;20.10;34.60;;;;;;4908393;29;20482;-77
2023/08/28 15:38:09;;;;;;;0.60;0.30;;;;;;;;;;4913942;29;20577;-76
2023/08/28 15:40:39;;;;;;;0.60;0.10;;;20.00;33.70;;;;;;4903595;29;20467;-75
2023/08/28 15:43:08;;;;;;;0.60;0.20;;;;;;;;;;4904123;29;20479;-76
2023/08/28 15:45:50;;;;;;;0.70;0.30;;;19.90;29.60;;;;;;4914753;29;21012;-76
2023/08/28 15:48:18;;;;;;;0.60;0.10;;;19.80;28.00;;;;;;4916386;29;20457;-76
2023/08/28 15:50:47;;;;;;;0.60;0.20;;;19.80;27.90;;;;;;4915087;29;20483;-76
2023/08/28 15:53:16;;;;;;;0.60;0.10;;;19.80;38.00;;;;;;4915188;29;20474;-75
2023/08/28 15:55:51;;;;;;;0.60;0.30;;;19.70;27.70;;;;;;4914348;29;20471;-75
2023/08/28 15:58:19;;;;;;;0.60;0.10;;;19.70;27.60;;;;;;4914981;29;20926;-77
2023/08/28 16:00:48;;;;;;;0.80;0.20;;;22.60;31.00;;;;;;4916258;29;20455;-76
2023/08/28 16:03:19;;;;;;;0.60;0.10;;;19.70;34.80;;;;;;4914687;29;21016;-76
2023/08/28 16:05:47;;;;;;;0.60;0.20;;;19.70;29.80;;;;;;4914326;29;20819;-76
2023/08/28 16:08:16;;;;;;;0.60;0.10;;;19.70;40.40;;;;;;4915799;29;20824;-76
2023/08/28 16:10:46;;;;;;;0.60;0.10;;;19.70;41.60;;;;;;4916310;29;20550;-77
2023/08/28 16:13:14;;;;;;;0.60;0.10;;;19.70;29.40;;;;;;4917093;29;20780;-75
2023/08/28 16:15:43;;;;;;;0.60;0.10;;;19.60;27.10;;;;;;4920187;29;20528;-77
2023/08/28 16:18:11;;;;;;;0.60;0.20;;;19.70;36.80;;;;;;4905541;29;20483;-75
2023/08/28 16:20:42;;;;;;;0.60;0.13;;;19.60;37.00;;;;;;4894173;29;20870;-76
2023/08/28 16:23:10;;;;;;;0.60;0.10;;;19.70;27.80;;;;;;4897344;29;20450;-74
2023/08/28 16:25:40;;;;;;;0.60;0.30;;;19.70;26.80;;;;;;4895916;29;20825;-74
2023/08/28 16:28:10;;;;;;;0.60;0.10;;;19.70;24.70;;;;;;4897455;29;20521;-75
2023/08/28 16:30:39;;;;;;;0.60;0.20;;;19.70;23.50;;;;;;4895783;29;20825;-75
2023/08/28 16:33:07;;;;;;;0.60;0.20;;;19.70;21.80;;;;;;4895777;29;20917;-74
2023/08/28 16:35:36;;;;;;;0.60;0.17;;;19.60;17.10;;;;;;4898670;29;20852;-74
2023/08/28 16:38:04;;;;;;;0.60;0.27;;;19.50;20.00;;;;;;4899935;29;20831;-75
2023/08/28 16:40:32;;;;;;;0.87;0.63;;;19.60;40.90;;;;;;4899357;29;20469;-75
2023/08/28 16:43:02;;;;;;;0.60;0.30;;;19.50;20.20;;;;;;4899797;29;20453;-75
2023/08/28 16:45:30;;;;;;;0.60;0.10;;;19.50;21.90;;;;;;4899304;29;21032;-75
2023/08/28 16:47:58;;;;;;;0.60;0.10;;;19.50;29.80;;;;;;4899899;29;20463;-76
2023/08/28 16:50:26;;;;;;;0.60;0.10;;;17.70;28.60;;;;;;4900785;29;20448;-75
2023/08/28 16:52:54;;;;;;;0.60;0.20;;;19.50;30.70;;;;;;4900463;29;20465;-75
2023/08/28 16:55:22;;;;;;;0.60;0.20;;;19.40;17.80;;;;;;4899899;29;20462;-75
2023/08/28 16:57:50;;;;;;;0.60;0.10;;;;;;;;;;4898893;29;20492;-73
2023/08/28 17:00:20;;;;;;;0.60;0.10;;;19.40;16.70;;;;;;4897751;29;20519;-74
2023/08/28 17:02:49;;;;;;;0.60;0.10;;;19.40;17.40;;;;;;4899012;29;20489;-75
2023/08/28 17:05:17;;;;;;;0.60;0.10;;;19.40;17.90;;;;;;4899301;29;20585;-75